Time;durP1;ratioP1;P1;durP2;ratioP2;P2;SDS_P1;SDS_P2;PMS_P1;PMS_P2;Temp;Humidity;BMP_temperature;BMP_pressure;BME280_temperature;BME280_humidity;BME280_pressure;Samples;Min_cycle;Max_cycle;Signal;HPM_P1;HPM_P2
2023/01/29 00:02:11;;;;;;;10.10;3.50;;;;;;;-0.73;86.31;100360.05;109490;1253;73461;-69
2023/01/29 00:04:59;;;;;;;8.80;3.80;;;;;;;-0.71;86.26;100368.02;109639;1251;67838;-68
2023/01/29 00:08:07;;;;;;;9.10;3.70;;;;;;;-0.68;86.24;100374.75;109586;1253;72719;-69
2023/01/29 00:11:01;;;;;;;10.20;3.90;;;;;;;-0.66;86.18;100378.88;109532;1254;58058;-69
2023/01/29 00:13:49;;;;;;;9.10;4.00;;;;;;;-0.61;86.03;100378.91;109467;1254;61062;-69
2023/01/29 00:16:38;;;;;;;13.40;3.80;;;;;;;-0.57;85.98;100378.98;108821;1253;1002040;-69
2023/01/29 00:19:26;;;;;;;9.50;3.80;;;;;;;-0.54;85.86;100381.15;109561;1252;66327;-69
2023/01/29 00:22:14;;;;;;;9.10;3.50;;;;;;;-0.50;85.82;100382.81;109558;1253;72700;-69
2023/01/29 00:25:02;;;;;;;8.20;3.40;;;;;;;-0.49;85.87;100386.44;109560;1254;58077;-69
2023/01/29 00:27:50;;;;;;;9.50;3.90;;;;;;;-0.48;86.04;100385.90;109556;1252;58728;-69
2023/01/29 00:30:39;;;;;;;10.90;4.20;;;;;;;-0.46;86.06;100390.72;109554;1252;73843;-69
2023/01/29 00:33:28;;;;;;;10.20;4.10;;;;;;;-0.42;85.75;100388.88;109610;1252;68760;-68
2023/01/29 00:36:19;;;;;;;12.10;3.60;;;;;;;-0.38;85.79;100391.02;109554;1252;72607;-68
2023/01/29 00:39:09;;;;;;;10.00;3.80;;;;;;;-0.36;85.68;100394.09;108694;1252;1002439;-68
2023/01/29 00:45:04;;;;;;;10.20;3.90;;;;;;;-0.32;85.68;100390.16;109547;1252;72050;-68
2023/01/29 00:47:52;;;;;;;8.60;3.70;;;;;;;-0.32;85.82;100398.91;109453;1252;68039;-69
2023/01/29 00:50:41;;;;;;;10.10;4.40;;;;;;;-0.33;85.86;100405.19;109515;1255;70512;-68
2023/01/29 00:53:29;;;;;;;9.90;4.10;;;;;;;-0.32;85.93;100407.61;109513;1253;59711;-68
2023/01/29 00:56:16;;;;;;;9.10;3.90;;;;;;;-0.32;86.26;100402.73;109588;1252;59991;-71
2023/01/29 00:59:04;;;;;;;8.60;3.90;;;;;;;-0.31;86.38;100394.50;109582;1252;72826;-68
2023/01/29 01:05:01;;;;;;;10.00;3.90;;;;;;;-0.30;87.47;100384.54;109548;1252;71171;-68
2023/01/29 01:07:53;;;;;;;10.80;3.40;;;;;;;-0.32;88.58;100388.25;109583;1253;58112;-68
2023/01/29 01:10:41;;;;;;;9.70;4.30;;;;;;;-0.37;89.88;100395.70;109467;1253;59081;-69
2023/01/29 01:13:32;;;;;;;10.50;4.60;;;;;;;-0.41;90.83;100397.73;109541;1252;74854;-68
2023/01/29 01:16:21;;;;;;;9.90;3.30;;;;;;;-0.44;90.97;100390.30;109598;1252;66618;-69
2023/01/29 01:19:09;;;;;;;13.60;4.90;;;;;;;-0.44;91.51;100385.78;109531;1252;71459;-70
2023/01/29 01:21:57;;;;;;;10.90;4.20;;;;;;;-0.45;92.15;100383.19;109576;1252;58073;-69
2023/01/29 01:24:45;;;;;;;9.10;3.90;;;;;;;-0.47;92.54;100379.42;109604;1251;58766;-68
2023/01/29 01:27:36;;;;;;;11.30;4.60;;;;;;;-0.51;93.15;100364.71;109538;1252;74008;-69
2023/01/29 01:30:26;;;;;;;10.60;4.70;;;;;;;-0.54;93.42;100363.05;109563;1251;68013;-69
2023/01/29 01:33:15;;;;;;;11.10;4.50;;;;;;;-0.54;93.78;100366.70;109536;1253;72431;-67
2023/01/29 01:36:08;;;;;;;11.40;3.90;;;;;;;-0.56;94.08;100357.50;109528;1251;58803;-66
2023/01/29 01:38:57;;;;;;;10.00;4.00;;;;;;;-0.55;94.87;100344.06;108540;1252;1002418;-67
2023/01/29 01:41:45;;;;;;;9.20;3.90;;;;;;;-0.56;95.83;100328.41;109576;1253;73860;-68
2023/01/29 01:44:52;;;;;;;9.50;3.70;;;;;;;-0.59;95.96;100319.25;108802;1252;1002155;-67
2023/01/29 01:47:48;;;;;;;10.50;3.60;;;;;;;-0.67;96.50;100315.45;109549;1254;72605;-68
2023/01/29 01:50:47;;;;;;;10.50;3.90;;;;;;;-0.67;96.89;100315.11;109568;1251;59801;-68
2023/01/29 01:53:42;;;;;;;9.40;3.80;;;;;;;-0.71;97.90;100313.11;109592;1252;59990;-69
2023/01/29 01:56:37;;;;;;;8.90;2.90;;;;;;;-0.71;98.12;100307.91;109484;1254;73502;-69
2023/01/29 01:59:25;;;;;;;9.10;4.00;;;;;;;-0.70;97.91;100303.85;108808;1251;1002592;-69
2023/01/29 02:12:15;;;;;;;9.10;3.90;;;;;;;-0.65;98.04;100287.17;109500;1253;75090;-69
2023/01/29 02:15:05;;;;;;;11.10;3.90;;;;;;;-0.62;98.32;100277.87;109514;1252;66476;-68
2023/01/29 02:17:54;;;;;;;9.10;4.20;;;;;;;-0.62;98.51;100275.41;109361;1252;73735;-67
2023/01/29 02:21:14;;;;;;;9.20;4.10;;;;;;;-0.63;98.79;100265.51;109578;1251;58157;-68
2023/01/29 02:24:51;;;;;;;11.30;5.00;;;;;;;-0.61;98.69;100262.49;109380;1253;59469;-68
2023/01/29 02:27:48;;;;;;;8.80;4.00;;;;;;;-0.56;98.82;100258.86;109378;1254;71857;-68
2023/01/29 02:30:51;;;;;;;9.70;4.20;;;;;;;-0.54;99.39;100253.91;109578;1253;69362;-68
2023/01/29 02:38:20;;;;;;;9.90;4.30;;;;;;;-0.44;99.66;100258.00;109578;1253;58151;-67
2023/01/29 02:41:22;;;;;;;10.40;5.30;;;;;;;-0.39;99.34;100258.19;109465;1252;61492;-68
2023/01/29 02:44:23;;;;;;;10.30;4.40;;;;;;;-0.35;99.21;100255.46;109450;1253;73482;-68
2023/01/29 02:47:20;;;;;;;8.20;3.70;;;;;;;-0.33;99.59;100249.65;109484;1253;69193;-69
2023/01/29 02:50:35;;;;;;;10.00;4.50;;;;;;;-0.31;99.76;100245.94;109359;1254;73424;-68
2023/01/29 02:53:43;;;;;;;8.80;3.90;;;;;;;-0.32;99.88;100249.09;109416;1254;59672;-68
2023/01/29 02:57:15;;;;;;;11.80;5.30;;;;;;;-0.32;99.98;100248.58;109498;1252;58871;-67
2023/01/29 03:00:25;;;;;;;10.40;4.60;;;;;;;-0.31;99.99;100245.91;109073;1253;73681;-69
2023/01/29 03:03:38;;;;;;;9.80;4.30;;;;;;;-0.29;100.00;100253.20;109302;1252;67801;-68
2023/01/29 03:06:52;;;;;;;11.60;5.10;;;;;;;-0.27;100.00;100252.27;109365;1253;72603;-68
2023/01/29 03:09:49;;;;;;;11.40;4.40;;;;;;;-0.25;100.00;100251.33;109448;1252;58095;-68
2023/01/29 03:12:39;;;;;;;12.00;4.70;;;;;;;-0.27;100.00;100252.80;109477;1252;58985;-68
2023/01/29 03:15:38;;;;;;;10.30;5.30;;;;;;;-0.28;100.00;100231.71;109478;1253;73434;-69
2023/01/29 03:19:30;;;;;;;8.80;4.10;;;;;;;-0.27;100.00;100244.06;109444;1253;66352;-69
2023/01/29 03:22:22;;;;;;;8.40;4.00;;;;;;;-0.28;100.00;100233.79;109390;1252;71421;-68
2023/01/29 03:34:45;;;;;;;8.60;4.30;;;;;;;-0.16;100.00;100229.42;109240;1253;66765;-67
2023/01/29 03:37:47;;;;;;;9.50;4.50;;;;;;;-0.17;100.00;100226.31;109428;1252;72703;-68
2023/01/29 03:40:53;;;;;;;9.00;4.10;;;;;;;-0.16;100.00;100221.05;109304;1252;58106;-68
2023/01/29 03:44:11;;;;;;;10.50;4.40;;;;;;;-0.18;100.00;100213.96;109417;1253;60015;-68
2023/01/29 03:47:12;;;;;;;8.60;3.70;;;;;;;-0.17;100.00;100215.17;109504;1252;75049;-69
2023/01/29 03:50:37;;;;;;;9.90;4.50;;;;;;;-0.14;100.00;100218.91;109515;1252;67630;-68
2023/01/29 03:54:03;;;;;;;9.80;4.30;;;;;;;-0.12;100.00;100213.45;109368;1251;72778;-69
2023/01/29 03:57:15;;;;;;;8.40;3.30;;;;;;;-0.11;100.00;100193.02;109562;1251;58134;-69
2023/01/29 04:00:13;;;;;;;9.50;4.20;;;;;;;-0.12;100.00;100193.02;109519;1251;61594;-68
2023/01/29 04:03:32;;;;;;;9.50;4.20;;;;;;;-0.12;100.00;100193.73;109584;1251;71585;-70
2023/01/29 04:06:28;;;;;;;10.20;4.50;;;;;;;-0.14;100.00;100190.29;109596;1251;66942;-69
2023/01/29 04:09:33;;;;;;;8.60;4.30;;;;;;;-0.15;100.00;100178.67;109597;1251;73488;-69
2023/01/29 04:12:30;;;;;;;9.40;3.90;;;;;;;-0.20;100.00;100175.15;109379;1251;58130;-68
2023/01/29 04:15:22;;;;;;;9.40;4.30;;;;;;;-0.17;100.00;100182.54;109476;1251;60152;-68
2023/01/29 04:18:10;;;;;;;8.10;3.80;;;;;;;-0.19;100.00;100172.32;109566;1251;73671;-68
2023/01/29 04:21:18;;;;;;;10.50;4.20;;;;;;;-0.19;100.00;100171.45;109636;1251;67636;-68
2023/01/29 04:24:07;;;;;;;8.00;3.50;;;;;;;-0.20;100.00;100158.73;109481;1253;71612;-69
2023/01/29 04:27:14;;;;;;;8.30;4.00;;;;;;;-0.22;100.00;100157.40;109223;1254;58729;-68
2023/01/29 04:30:36;;;;;;;8.10;3.70;;;;;;;-0.20;100.00;100164.50;109232;1254;61317;-68
2023/01/29 04:34:03;;;;;;;7.80;2.90;;;;;;;-0.18;100.00;100160.23;109415;1253;74784;-69
2023/01/29 04:37:13;;;;;;;8.60;4.10;;;;;;;-0.16;100.00;100159.67;109505;1253;66638;-69
2023/01/29 04:40:26;;;;;;;9.90;4.70;;;;;;;-0.12;100.00;100162.50;109361;1256;71407;-67
2023/01/29 04:43:29;;;;;;;8.50;4.00;;;;;;;-0.08;100.00;100163.08;109216;1253;58194;-68
2023/01/29 04:46:36;;;;;;;8.40;3.90;;;;;;;-0.04;100.00;100163.46;109264;1254;58245;-68
2023/01/29 04:50:28;;;;;;;8.40;4.10;;;;;;;-0.02;100.00;100162.86;108627;1253;1002870;-68
2023/01/29 04:53:49;;;;;;;6.90;3.20;;;;;;;0.02;100.00;100166.08;108084;1260;1002123;-69
2023/01/29 04:56:53;;;;;;;8.70;4.00;;;;;;;0.03;100.00;100156.62;108855;1260;71396;-68
2023/01/29 04:59:47;;;;;;;8.60;3.70;;;;;;;0.05;100.00;100147.50;108881;1260;58424;-68
2023/01/29 05:02:38;;;;;;;7.90;3.70;;;;;;;0.05;100.00;100134.56;108961;1258;59480;-67
2023/01/29 05:05:27;;;;;;;7.60;3.30;;;;;;;0.06;100.00;100137.34;109059;1258;73030;-68
2023/01/29 05:08:20;;;;;;;7.90;3.70;;;;;;;0.05;100.00;100136.66;108951;1258;66480;-69
2023/01/29 05:11:09;;;;;;;8.30;3.60;;;;;;;0.04;100.00;100135.66;109010;1258;73436;-68
2023/01/29 05:13:58;;;;;;;8.70;4.00;;;;;;;0.04;100.00;100133.37;108315;1259;1002397;-69
2023/01/29 05:16:51;;;;;;;6.90;3.20;;;;;;;0.05;100.00;100134.06;109003;1258;59277;-68
2023/01/29 05:19:40;;;;;;;7.40;3.20;;;;;;;0.05;100.00;100133.17;108976;1258;73943;-67
2023/01/29 05:22:29;;;;;;;8.70;4.00;;;;;;;0.05;100.00;100135.60;109022;1259;66891;-69
2023/01/29 05:25:26;;;;;;;9.20;4.10;;;;;;;0.08;100.00;100130.63;109043;1258;71453;-68
2023/01/29 05:28:17;;;;;;;7.50;3.40;;;;;;;0.09;100.00;100122.56;108210;1258;1002244;-68
2023/01/29 05:31:05;;;;;;;7.10;3.40;;;;;;;0.09;100.00;100117.84;109547;1251;60744;-68
2023/01/29 05:33:54;;;;;;;6.60;2.90;;;;;;;0.10;100.00;100118.54;109626;1251;72715;-68
2023/01/29 05:36:42;;;;;;;7.90;3.30;;;;;;;0.10;100.00;100107.55;109612;1251;69147;-68
2023/01/29 05:39:30;;;;;;;8.10;3.30;;;;;;;0.12;100.00;100112.34;109628;1251;70909;-69
2023/01/29 05:42:18;;;;;;;6.40;3.00;;;;;;;0.15;100.00;100116.61;109602;1251;58468;-67
2023/01/29 05:45:07;;;;;;;6.80;3.00;;;;;;;0.19;100.00;100111.77;108868;1251;1002773;-69
2023/01/29 05:47:58;;;;;;;7.80;3.20;;;;;;;0.21;100.00;100104.70;109489;1251;72411;-67
2023/01/29 05:50:47;;;;;;;8.50;3.30;;;;;;;0.25;100.00;100109.12;109518;1251;67724;-68
2023/01/29 05:53:35;;;;;;;7.50;3.30;;;;;;;0.28;100.00;100111.46;109469;1251;73755;-68
2023/01/29 05:56:24;;;;;;;7.60;3.40;;;;;;;0.32;100.00;100116.91;109477;1252;58211;-69
2023/01/29 05:59:12;;;;;;;9.10;3.80;;;;;;;0.35;100.00;100114.71;109529;1252;60318;-68
2023/01/29 06:01:59;;;;;;;9.10;4.00;;;;;;;0.39;100.00;100109.16;109502;1253;75267;-71
2023/01/29 06:04:51;;;;;;;10.00;3.80;;;;;;;0.42;100.00;100110.97;109564;1252;68859;-71
2023/01/29 06:07:43;;;;;;;10.40;4.50;;;;;;;0.47;100.00;100103.66;109554;1252;72699;-69
2023/01/29 06:10:32;;;;;;;9.90;4.20;;;;;;;0.50;100.00;100109.30;109552;1252;58090;-68
2023/01/29 06:13:19;;;;;;;11.50;4.20;;;;;;;0.50;100.00;100115.41;109546;1252;58773;-69
2023/01/29 06:16:12;;;;;;;9.20;3.80;;;;;;;0.50;100.00;100104.95;109571;1251;73628;-70
2023/01/29 06:19:00;;;;;;;11.50;5.30;;;;;;;0.49;100.00;100099.70;108765;1255;1002870;-68
2023/01/29 06:21:48;;;;;;;11.40;5.20;;;;;;;0.52;100.00;100104.02;109575;1251;72302;-70
2023/01/29 06:24:36;;;;;;;11.90;5.20;;;;;;;0.54;100.00;100102.02;109587;1252;58464;-69
2023/01/29 06:27:24;;;;;;;11.00;5.10;;;;;;;0.55;100.00;100100.39;109523;1251;60130;-69
2023/01/29 06:30:13;;;;;;;10.90;4.80;;;;;;;0.57;100.00;100098.40;109573;1252;74015;-68
2023/01/29 06:33:01;;;;;;;10.50;4.80;;;;;;;0.60;100.00;100087.31;109550;1252;68608;-68
2023/01/29 06:35:59;;;;;;;11.20;4.80;;;;;;;0.60;100.00;100094.11;109544;1252;72695;-68
2023/01/29 06:38:47;;;;;;;14.80;6.20;;;;;;;0.61;100.00;100095.13;109515;1253;58042;-70
2023/01/29 06:41:34;;;;;;;14.40;6.20;;;;;;;0.61;100.00;100092.67;109516;1253;60220;-71
2023/01/29 06:44:22;;;;;;;11.40;5.60;;;;;;;0.60;100.00;100087.30;109521;1251;73991;-67
2023/01/29 06:47:10;;;;;;;10.20;4.80;;;;;;;0.60;100.00;100085.36;109545;1252;67557;-70
2023/01/29 06:49:58;;;;;;;10.40;4.60;;;;;;;0.62;100.00;100080.92;109544;1252;72400;-66
2023/01/29 06:52:46;;;;;;;12.50;5.60;;;;;;;0.65;100.00;100081.33;109496;1252;58059;-69
2023/01/29 06:55:34;;;;;;;10.10;4.60;;;;;;;0.66;100.00;100081.65;109573;1252;60951;-66
2023/01/29 06:58:22;;;;;;;12.20;5.10;;;;;;;0.67;100.00;100079.89;109504;1252;72325;-71
2023/01/29 07:01:11;;;;;;;12.80;5.00;;;;;;;0.69;100.00;100074.92;109524;1252;67769;-69
2023/01/29 07:04:19;;;;;;;14.00;5.90;;;;;;;0.72;100.00;100073.41;109564;1253;72608;-70
2023/01/29 07:07:12;;;;;;;11.10;4.90;;;;;;;0.77;100.00;100072.17;109613;1251;58061;-66
2023/01/29 07:10:00;;;;;;;11.20;5.00;;;;;;;0.81;100.00;100072.05;109553;1252;61311;-67
2023/01/29 07:12:48;;;;;;;10.50;4.90;;;;;;;0.79;100.00;100065.99;109605;1252;73585;-66
2023/01/29 07:15:36;;;;;;;11.10;5.00;;;;;;;0.85;100.00;100073.98;109558;1251;66641;-67
2023/01/29 07:18:24;;;;;;;12.30;5.30;;;;;;;0.87;100.00;100066.38;109594;1252;72899;-65
2023/01/29 07:21:13;;;;;;;10.90;5.30;;;;;;;0.89;100.00;100068.06;109582;1252;58196;-68
2023/01/29 07:24:00;;;;;;;12.50;5.00;;;;;;;0.90;100.00;100068.90;109553;1252;58722;-69
2023/01/29 07:26:48;;;;;;;15.20;5.70;;;;;;;0.91;100.00;100065.90;109551;1252;73603;-68
2023/01/29 07:29:36;;;;;;;12.10;5.40;;;;;;;0.97;100.00;100064.10;108801;1252;1002439;-69
2023/01/29 07:32:28;;;;;;;13.00;6.00;;;;;;;1.00;100.00;100058.21;109507;1252;71461;-68
2023/01/29 07:35:15;;;;;;;17.70;8.30;;;;;;;1.03;100.00;100052.18;109533;1253;58484;-68
2023/01/29 07:38:04;;;;;;;17.10;7.60;;;;;;;1.06;100.00;100047.33;109516;1252;61270;-68
2023/01/29 07:40:52;;;;;;;12.30;5.40;;;;;;;1.09;100.00;100048.98;109555;1252;73587;-67
2023/01/29 07:43:40;;;;;;;11.60;5.30;;;;;;;1.12;100.00;100049.19;109547;1252;66806;-70
2023/01/29 07:46:28;;;;;;;14.10;5.00;;;;;;;1.16;100.00;100042.91;109505;1253;72501;-71
2023/01/29 07:49:16;;;;;;;10.10;4.30;;;;;;;1.21;100.00;100048.17;109536;1252;58162;-70
2023/01/29 07:52:04;;;;;;;10.00;4.30;;;;;;;1.22;100.00;100046.18;109550;1251;58722;-68
2023/01/29 07:54:52;;;;;;;10.60;4.70;;;;;;;1.23;100.00;100044.58;109531;1252;73403;-69
2023/01/29 07:57:40;;;;;;;10.40;4.50;;;;;;;1.25;100.00;100042.59;109560;1252;68025;-67
2023/01/29 08:00:30;;;;;;;10.10;4.60;;;;;;;1.22;100.00;100039.38;109548;1252;73585;-69
2023/01/29 08:03:19;;;;;;;9.80;4.30;;;;;;;1.28;100.00;100043.16;109374;1253;58883;-70
2023/01/29 08:06:07;;;;;;;9.10;4.00;;;;;;;1.31;100.00;100046.20;109575;1251;60025;-69
2023/01/29 08:08:56;;;;;;;11.90;4.40;;;;;;;1.31;100.00;100044.42;109563;1252;74985;-68
2023/01/29 08:11:44;;;;;;;9.20;3.60;;;;;;;1.32;100.00;100041.39;109543;1252;67904;-70
2023/01/29 08:14:32;;;;;;;8.80;4.10;;;;;;;1.33;100.00;100043.30;109559;1252;72872;-69
2023/01/29 08:17:21;;;;;;;8.40;3.70;;;;;;;1.31;100.00;100032.36;109541;1252;58614;-68
2023/01/29 08:20:10;;;;;;;8.80;3.90;;;;;;;1.34;100.00;100035.41;109525;1253;60427;-69
2023/01/29 08:23:05;;;;;;;9.30;4.30;;;;;;;1.36;100.00;100033.05;109565;1252;73583;-71
2023/01/29 08:25:53;;;;;;;9.70;3.70;;;;;;;1.38;100.00;100030.52;109546;1251;66612;-67
2023/01/29 08:28:41;;;;;;;10.40;4.40;;;;;;;1.46;100.00;100030.39;109511;1251;73619;-68
2023/01/29 08:31:29;;;;;;;10.00;4.40;;;;;;;1.53;100.00;100029.75;109521;1252;59526;-68
2023/01/29 08:34:17;;;;;;;9.40;4.60;;;;;;;1.58;100.00;100028.13;109545;1253;60219;-70
2023/01/29 08:37:05;;;;;;;9.60;4.20;;;;;;;1.63;100.00;100021.13;109546;1251;73551;-70
2023/01/29 08:39:52;;;;;;;9.70;4.80;;;;;;;1.63;100.00;100025.49;109514;1253;66691;-67
2023/01/29 08:42:40;;;;;;;9.80;4.40;;;;;;;1.61;100.00;100036.59;109554;1252;71396;-70
2023/01/29 08:45:30;;;;;;;9.00;4.00;;;;;;;1.62;100.00;100035.66;109539;1251;58429;-69
2023/01/29 08:48:18;;;;;;;10.00;4.00;;;;;;;1.63;100.00;100034.41;109553;1252;59041;-70
2023/01/29 08:51:06;;;;;;;9.90;4.50;;;;;;;1.66;100.00;100032.36;109533;1251;73823;-68
2023/01/29 08:53:55;;;;;;;10.80;4.60;;;;;;;1.66;100.00;100031.14;109553;1252;66383;-67
2023/01/29 08:56:44;;;;;;;9.60;4.40;;;;;;;1.68;100.00;100022.83;109564;1252;71392;-70
2023/01/29 08:59:32;;;;;;;9.30;3.60;;;;;;;1.73;100.00;100015.30;109472;1252;58559;-67
2023/01/29 09:02:20;;;;;;;9.70;3.50;;;;;;;1.76;100.00;100009.40;109503;1252;60302;-67
2023/01/29 09:05:09;;;;;;;9.50;3.50;;;;;;;1.81;100.00;100003.39;109561;1252;74374;-67
2023/01/29 09:07:58;;;;;;;10.40;3.70;;;;;;;1.86;100.00;100003.17;109578;1252;68527;-71
2023/01/29 09:10:45;;;;;;;9.40;3.30;;;;;;;1.89;100.00;99999.39;109514;1252;72244;-68
2023/01/29 09:13:34;;;;;;;9.30;3.40;;;;;;;1.96;100.00;100005.02;109562;1252;58888;-72
2023/01/29 09:16:21;;;;;;;11.60;4.40;;;;;;;2.02;99.94;100009.30;109586;1251;60506;-70
2023/01/29 09:19:10;;;;;;;10.50;3.80;;;;;;;2.06;99.91;100011.09;109562;1252;73570;-70
2023/01/29 09:21:57;;;;;;;10.10;3.70;;;;;;;2.09;99.89;100019.55;109573;1251;68041;-72
2023/01/29 09:24:45;;;;;;;11.80;3.60;;;;;;;2.11;99.85;100021.02;109562;1252;71443;-73
2023/01/29 09:27:34;;;;;;;20.80;3.80;;;;;;;2.12;99.59;100019.95;109561;1253;58407;-72
2023/01/29 09:30:22;;;;;;;9.40;3.70;;;;;;;2.07;99.18;100007.90;109528;1252;61020;-72
2023/01/29 09:33:10;;;;;;;9.60;3.90;;;;;;;2.01;99.29;100008.67;109559;1254;73325;-68
2023/01/29 09:35:58;;;;;;;8.60;3.50;;;;;;;1.98;99.67;100009.32;109563;1252;68198;-69
2023/01/29 09:38:47;;;;;;;9.20;3.70;;;;;;;1.96;99.83;100004.52;109586;1253;73050;-69
2023/01/29 09:41:59;;;;;;;8.20;3.30;;;;;;;1.90;99.95;99997.80;109519;1252;58488;-68
2023/01/29 09:45:13;;;;;;;9.50;3.60;;;;;;;1.84;99.85;100000.67;109614;1253;60067;-70
2023/01/29 09:48:04;;;;;;;9.30;3.60;;;;;;;1.79;100.00;100002.08;109587;1251;72283;-70
2023/01/29 09:50:56;;;;;;;9.50;3.90;;;;;;;1.73;100.00;100001.27;109563;1251;67590;-71
2023/01/29 09:53:57;;;;;;;8.40;3.40;;;;;;;1.71;100.00;99996.98;109554;1251;73578;-68
2023/01/29 09:56:49;;;;;;;8.90;2.70;;;;;;;1.70;100.00;99993.38;109627;1251;58077;-68
2023/01/29 09:59:37;;;;;;;9.10;3.80;;;;;;;1.70;100.00;99984.61;109570;1251;58789;-69
2023/01/29 10:03:08;;;;;;;9.60;3.60;;;;;;;1.71;100.00;99982.81;109596;1251;72627;-70
2023/01/29 10:06:23;;;;;;;10.10;3.60;;;;;;;1.68;100.00;99970.35;109590;1251;67820;-71
2023/01/29 10:09:51;;;;;;;11.00;3.70;;;;;;;1.74;100.00;99975.55;109599;1251;72429;-69
2023/01/29 10:13:23;;;;;;;8.40;3.10;;;;;;;1.75;100.00;99976.00;109542;1251;58215;-71
2023/01/29 10:16:37;;;;;;;8.10;2.90;;;;;;;1.84;100.00;99977.72;109029;1259;59177;-71
2023/01/29 10:20:02;;;;;;;9.70;3.10;;;;;;;1.88;100.00;99975.27;109081;1259;74723;-70
2023/01/29 10:23:12;;;;;;;8.60;3.00;;;;;;;1.90;100.00;99972.58;109185;1258;68108;-76
2023/01/29 10:26:01;;;;;;;8.20;3.30;;;;;;;1.90;100.00;99959.79;108977;1260;71486;-72
2023/01/29 10:28:53;;;;;;;9.10;3.60;;;;;;;1.92;99.95;99953.08;108949;1259;58136;-70
2023/01/29 10:31:43;;;;;;;8.40;3.50;;;;;;;1.95;99.96;99950.66;108950;1259;60169;-72
2023/01/29 10:34:40;;;;;;;8.70;3.30;;;;;;;1.99;99.99;99937.01;108999;1258;73471;-70
2023/01/29 10:37:40;;;;;;;7.60;3.40;;;;;;;2.06;99.97;99938.80;108959;1259;67670;-68
2023/01/29 10:40:45;;;;;;;7.90;3.30;;;;;;;2.19;99.95;99934.35;108939;1259;73253;-69
2023/01/29 10:43:44;;;;;;;7.30;2.90;;;;;;;2.29;99.13;99923.74;108978;1260;58179;-70
2023/01/29 10:46:53;;;;;;;7.80;3.20;;;;;;;2.39;98.99;99917.19;108974;1260;61076;-70
2023/01/29 10:50:21;;;;;;;6.90;2.70;;;;;;;2.48;98.50;99917.97;108994;1259;72283;-70
2023/01/29 10:53:24;;;;;;;6.20;2.20;;;;;;;2.50;98.01;99909.16;109265;1253;68833;-70
2023/01/29 10:56:18;;;;;;;7.30;2.70;;;;;;;2.52;98.15;99906.58;109548;1252;73012;-71
2023/01/29 10:59:28;;;;;;;7.20;2.60;;;;;;;2.56;97.92;99909.40;109546;1253;58464;-70
2023/01/29 11:02:20;;;;;;;9.50;2.40;;;;;;;2.59;97.18;99903.45;109628;1252;58264;-70
2023/01/29 11:05:26;;;;;;;7.90;3.00;;;;;;;2.62;97.23;99906.67;109448;1252;74950;-71
2023/01/29 11:08:21;;;;;;;8.10;2.90;;;;;;;2.66;97.09;99898.23;109618;1251;66431;-71
2023/01/29 11:11:20;;;;;;;7.40;2.90;;;;;;;2.63;96.81;99896.80;109509;1253;74225;-68
2023/01/29 11:14:20;;;;;;;8.70;3.00;;;;;;;2.60;96.85;99888.73;109468;1253;58127;-69
2023/01/29 11:17:18;;;;;;;7.90;2.80;;;;;;;2.59;97.11;99879.31;109483;1252;58933;-72
2023/01/29 11:20:44;;;;;;;7.90;3.20;;;;;;;2.53;97.13;99876.40;109545;1251;71351;-68
2023/01/29 11:23:32;;;;;;;8.40;2.90;;;;;;;2.50;97.54;99873.95;109516;1252;69054;-69
2023/01/29 11:26:22;;;;;;;9.30;3.60;;;;;;;2.51;97.67;99868.79;109599;1251;72649;-69
2023/01/29 11:29:28;;;;;;;8.40;3.00;;;;;;;2.51;97.56;99869.84;109560;1252;58116;-69
2023/01/29 11:32:22;;;;;;;7.80;3.00;;;;;;;2.53;97.40;99866.27;109581;1252;60270;-69
2023/01/29 11:35:21;;;;;;;8.60;3.10;;;;;;;2.49;97.54;99864.17;109590;1252;72408;-69
2023/01/29 11:38:15;;;;;;;7.80;3.20;;;;;;;2.51;97.61;99860.94;109490;1252;67735;-73
2023/01/29 11:41:21;;;;;;;8.70;3.50;;;;;;;2.50;97.30;99857.31;109412;1252;71555;-69
2023/01/29 11:44:41;;;;;;;7.60;3.00;;;;;;;2.47;97.47;99855.18;109540;1252;58556;-69
2023/01/29 11:47:29;;;;;;;8.40;3.30;;;;;;;2.42;97.61;99847.71;109602;1253;60224;-70
2023/01/29 11:50:33;;;;;;;8.70;3.00;;;;;;;2.44;98.12;99856.34;109526;1252;73503;-71
2023/01/29 11:53:40;;;;;;;7.80;2.80;;;;;;;2.44;98.16;99856.70;109156;1252;66499;-69
2023/01/29 11:56:33;;;;;;;6.90;2.60;;;;;;;2.40;98.06;99859.02;109492;1253;71482;-69
2023/01/29 11:59:38;;;;;;;7.80;3.00;;;;;;;2.37;98.59;99856.52;109510;1253;59426;-70
2023/01/29 12:02:31;;;;;;;7.80;3.00;;;;;;;2.36;98.57;99849.00;109616;1253;59507;-73
2023/01/29 12:05:23;;;;;;;11.20;3.90;;;;;;;2.36;98.66;99851.30;109451;1252;73908;-69
2023/01/29 12:08:17;;;;;;;10.00;3.60;;;;;;;2.33;98.76;99843.55;109587;1252;66643;-72
2023/01/29 12:11:23;;;;;;;7.40;2.80;;;;;;;2.35;98.53;99839.45;109551;1252;72461;-69
2023/01/29 12:14:32;;;;;;;9.70;3.30;;;;;;;2.35;98.88;99824.20;109496;1253;58480;-71
2023/01/29 12:17:25;;;;;;;7.50;2.50;;;;;;;2.34;98.90;99825.10;109431;1252;58801;-73
2023/01/29 12:20:32;;;;;;;7.20;2.60;;;;;;;2.30;98.95;99816.92;109519;1252;73745;-73
2023/01/29 12:23:29;;;;;;;7.40;3.10;;;;;;;2.25;99.22;99815.58;109540;1253;66310;-70
2023/01/29 12:26:32;;;;;;;7.10;2.80;;;;;;;2.21;99.69;99811.89;109506;1253;72394;-68
2023/01/29 12:29:40;;;;;;;6.70;2.20;;;;;;;2.17;99.78;99792.86;109531;1253;58197;-68
2023/01/29 12:32:55;;;;;;;8.00;2.80;;;;;;;2.21;99.75;99797.55;109532;1253;60292;-70
2023/01/29 12:35:49;;;;;;;7.50;2.70;;;;;;;2.21;99.86;99783.73;108040;1254;1002817;-69
2023/01/29 12:38:37;;;;;;;7.80;2.90;;;;;;;2.20;100.00;99772.40;109501;1256;67647;-70
2023/01/29 12:41:51;;;;;;;8.20;3.10;;;;;;;2.25;99.94;99771.30;109566;1253;70650;-71
2023/01/29 12:44:47;;;;;;;7.60;3.00;;;;;;;2.28;99.83;99773.42;109530;1252;58123;-70
2023/01/29 12:47:59;;;;;;;9.10;2.90;;;;;;;2.25;99.84;99766.73;109423;1253;60688;-69
2023/01/29 12:50:49;;;;;;;8.40;2.80;;;;;;;2.17;100.00;99766.05;108781;1253;1002237;-69
2023/01/29 12:53:47;;;;;;;8.20;2.70;;;;;;;2.14;100.00;99760.24;109573;1253;67918;-71
2023/01/29 12:56:46;;;;;;;7.80;2.60;;;;;;;2.10;100.00;99749.08;109496;1254;72339;-71
2023/01/29 12:59:50;;;;;;;8.90;3.30;;;;;;;2.07;100.00;99745.19;109537;1251;58736;-69
2023/01/29 13:02:45;;;;;;;8.80;2.80;;;;;;;2.04;100.00;99746.86;109569;1252;58945;-71
2023/01/29 13:05:51;;;;;;;8.40;2.90;;;;;;;2.04;100.00;99741.84;109481;1252;74695;-68
2023/01/29 13:08:53;;;;;;;7.80;3.10;;;;;;;2.04;100.00;99738.84;109449;1252;67805;-70
2023/01/29 13:12:09;;;;;;;7.80;2.80;;;;;;;2.03;100.00;99737.85;109475;1253;72795;-69
2023/01/29 13:15:14;;;;;;;7.00;2.70;;;;;;;2.01;100.00;99744.39;109532;1252;58548;-69
2023/01/29 13:18:44;;;;;;;6.90;2.60;;;;;;;1.98;100.00;99742.64;109483;1253;58993;-68
2023/01/29 13:21:42;;;;;;;7.20;2.50;;;;;;;1.90;100.00;99745.30;109498;1253;73569;-66
2023/01/29 13:24:40;;;;;;;9.10;3.80;;;;;;;1.87;100.00;99739.27;109552;1253;66669;-68
2023/01/29 13:27:36;;;;;;;7.70;3.00;;;;;;;1.85;100.00;99746.58;109554;1253;73730;-69
2023/01/29 13:30:35;;;;;;;8.30;3.50;;;;;;;1.84;100.00;99741.34;109375;1253;58500;-71
2023/01/29 13:33:24;;;;;;;9.10;2.80;;;;;;;1.84;100.00;99746.44;109536;1252;58787;-68
2023/01/29 13:36:22;;;;;;;7.50;3.30;;;;;;;1.84;100.00;99739.09;108772;1252;1003034;-69
2023/01/29 13:39:24;;;;;;;8.40;3.70;;;;;;;1.85;100.00;99729.06;109504;1253;67627;-68
2023/01/29 13:42:20;;;;;;;7.70;2.80;;;;;;;1.87;100.00;99727.21;109517;1253;72693;-68
2023/01/29 13:45:20;;;;;;;9.20;3.40;;;;;;;1.88;100.00;99734.36;109482;1255;58437;-68
2023/01/29 13:48:31;;;;;;;9.30;4.00;;;;;;;1.90;100.00;99736.00;109491;1253;60293;-68
2023/01/29 13:51:25;;;;;;;8.70;3.80;;;;;;;1.95;100.00;99732.98;109488;1254;73893;-67
2023/01/29 13:54:23;;;;;;;11.40;4.90;;;;;;;2.00;100.00;99732.02;109508;1253;67623;-68
2023/01/29 13:57:52;;;;;;;11.20;4.70;;;;;;;2.02;100.00;99737.02;109544;1252;72241;-68
2023/01/29 14:00:43;;;;;;;11.30;4.10;;;;;;;2.02;100.00;99735.61;109588;1252;59055;-69
2023/01/29 14:03:31;;;;;;;9.70;4.20;;;;;;;2.03;100.00;99738.52;109540;1253;61183;-69